createdAt,value
2023-01-09T00:06:16.969Z,22.5
2023-01-09T00:21:59.344Z,23.5
2023-01-09T00:37:42.599Z,24.1
2023-01-09T00:53:25.209Z,25.3
2023-01-09T01:09:08.120Z,27.8
2023-01-09T01:24:51.001Z,26.1
2023-01-09T01:40:34.269Z,28
2023-01-09T01:56:16.929Z,27.6
2023-01-09T02:11:59.514Z,29.7
2023-01-09T02:27:42.440Z,33.8
2023-01-09T02:43:24.901Z,31.9
2023-01-09T02:59:07.973Z,36.3
2023-01-09T03:14:51.248Z,32.8
2023-01-09T03:30:34.091Z,40.2
2023-01-09T03:46:17.310Z,40.5
2023-01-09T04:01:59.726Z,37.7
2023-01-09T04:17:42.777Z,33.09
2023-01-09T04:33:25.507Z,30
2023-01-09T04:49:08.202Z,29.4
2023-01-09T05:04:50.979Z,30.3
2023-01-09T05:20:33.396Z,28.3
2023-01-09T05:36:15.817Z,28.3
2023-01-09T05:51:58.207Z,32.4
2023-01-09T06:07:40.953Z,32.59
2023-01-09T06:23:23.730Z,35.4
2023-01-09T06:39:06.326Z,33.7
2023-01-09T06:54:48.701Z,34.9
2023-01-09T07:10:31.565Z,36
2023-01-09T07:26:14.272Z,38.7
2023-01-09T07:41:57.002Z,38.3
2023-01-09T07:57:40.142Z,41.5
2023-01-09T08:13:22.505Z,42.7
2023-01-09T08:29:05.045Z,39.8
2023-01-09T08:44:48.170Z,42.1
2023-01-09T09:00:31.001Z,35.2
2023-01-09T09:16:14.258Z,34.2
2023-01-09T09:31:57.388Z,32.4
2023-01-09T09:47:40.564Z,30.7
2023-01-09T10:03:22.942Z,27.6
2023-01-09T10:19:05.601Z,23.2
2023-01-09T10:34:48.528Z,19.2
2023-01-09T10:35:35.883Z,19.2
2023-01-09T10:51:18.204Z,19
2023-01-09T11:07:01.057Z,14.2
2023-01-09T11:22:43.452Z,11.8
2023-01-09T11:38:26.673Z,10.7
2023-01-09T11:54:09.279Z,8.1
2023-01-09T12:09:52.073Z,10
2023-01-09T12:25:35.014Z,12.9
2023-01-09T12:41:17.832Z,8.8
2023-01-09T12:57:00.846Z,8.2
2023-01-09T13:12:43.369Z,8.7
2023-01-09T13:28:25.837Z,6.5
2023-01-09T13:44:08.863Z,6.7
2023-01-09T13:59:51.020Z,8
2023-01-09T14:15:33.712Z,7.6
2023-01-09T14:31:16.364Z,7.2
2023-01-09T14:46:58.670Z,8.1
2023-01-09T15:02:40.947Z,5
2023-01-09T15:18:23.602Z,6.9
2023-01-09T15:34:06.853Z,7
2023-01-09T15:49:50.040Z,6.6
2023-01-09T16:05:32.893Z,5.4
2023-01-09T16:21:15.969Z,7.1
2023-01-09T16:36:58.519Z,5.7
2023-01-09T16:52:41.244Z,6.5
2023-01-09T17:08:24.210Z,5.3
2023-01-09T17:24:06.757Z,4.19
2023-01-09T17:39:49.627Z,5.5
2023-01-09T17:55:32.882Z,6
2023-01-09T18:11:15.520Z,8.6
2023-01-09T18:26:57.935Z,5.6
2023-01-09T18:42:40.412Z,5.2
2023-01-09T18:58:23.486Z,5.5
2023-01-09T19:14:06.714Z,5.4
2023-01-09T19:29:48.999Z,7.3
2023-01-09T19:45:31.797Z,5
2023-01-09T20:01:14.346Z,5.5
2023-01-09T20:16:56.693Z,9
2023-01-09T20:32:39.775Z,10.1
2023-01-09T20:48:22.119Z,5.6
2023-01-09T21:04:04.880Z,4.6
2023-01-09T21:19:48.090Z,7.8
2023-01-09T21:35:31.129Z,12.2
2023-01-09T21:51:13.398Z,5.2
2023-01-09T22:06:55.717Z,6
2023-01-09T22:22:38.794Z,3.9
2023-01-09T22:38:21.321Z,5.2
2023-01-09T22:54:03.977Z,6.5
2023-01-09T23:09:46.812Z,5.5
2023-01-09T23:25:29.323Z,5.2
2023-01-09T23:41:11.890Z,4.8
2023-01-09T23:56:54.167Z,5
